FKYSFOON

Guest
Details From FKYS - YAOUNDE NSIMALEN
To FOON - MVENGUE
Flight Number -
Tags generated
Created
Modified
Stats Distance 343 nm / 635 km
Max Altitude 29,200 ft / 8,900 m
Waypoints 5
Social Downloads 1
Likes 0
Share VATSIM

Download

Looking for another format? Having issues loading an existing format? Contact us
Advertisement - Login to hide

Notes

Basic altitude profile: - Ascent Rate: 2500ft/min - Ascent Speed: 250kts - Cruise Altitude: 35000ft - Cruise Speed: 420kts - Descent Rate: 1500ft/min - Descent Speed: 250kts Options: - Use NATs: yes - Use PACOTS: yes - Use low airways: yes - Use high airways: yes

Route

FKYS TAPEK UR986G FRV FOON

ID Type Via Altitude Latitude Longitude Leg Dist Tot Dist Heading (true) Name
O FKYS APT - 0 ft / 0 m 3.72255˚ 11.55327˚ - 0 nm - YAOUNDE NSIMALEN
TAPEK FIX - 25,400 ft / 7,742 m 2.60278˚ 11.95139˚ 71 nm 71 nm 160° / 160° -
EMTIP FIX UR986G (AWY-HI) 29,200 ft / 8,900 m 0.48833˚ 12.69306˚ 134 nm 205 nm 161° / 161° -
FRV VOR UR986G (AWY-HI) 23,500 ft / 7,163 m -1.65308˚ 13.44392˚ 136 nm 342 nm 161° / 161° FRANCEVILLE VOR-DME
O FOON APT - 0 ft / 0 m -1.65616˚ 13.43804˚ 0 nm 342 nm 242° / 242° MVENGUE

Altitude Profile

Advertisement - Login to hide

Weather


0- 5 10 15 20 25 30 35+ Temperature / ° C

Clouds and Precipitation
Forecast for 2017-12-18 18:00 UTC. Updated 2 hours ago

Ground ~20,000 ft ~40,000 ft Winds

FKYS

Details ICAO FKYS (NSI)
Name YAOUNDE NSIMALEN
Region Cameroon
Timezone Africa/Douala (UTC+1.0)
Stats Elevation 2,278 ft / 694 m (AMSL)
Location 3.722554° 11.553270°
Runways 1
Magnetic Variation 0.689° W

METAR

FKYS 181800Z 25003KT 8000 BKN020 FEW023CB 27/21 Q1013 TEMPO TS

Decode

TAF

TAF FKYS 181700Z 1818/1918 VRB04KT 7000 SCT016 BECMG 1820/1822 BKN006 TEMPO 1903/1906 2000 BR BECMG 1908/1910 BKN016

Decode

Departure Runways

ID Width Length Bearing (true) Bearing (mag) Surface Threshold Offset Overrun Length
01 148 ft / 45 m 11,220 ft / 3,420 m 9.87° 10.56° Asphalt 0 ft / 0 m 200 ft / 61 m
19 148 ft / 45 m 11,220 ft / 3,420 m 189.87° 190.56° Asphalt 0 ft / 0 m 200 ft / 61 m

FOON

Details ICAO FOON (MVB)
Name MVENGUE
Region Gabon
Timezone Africa/Libreville (UTC+1.0)
Stats Elevation 1,450 ft / 442 m (AMSL)
Location -1.656155° 13.438038°
Runways 1
Magnetic Variation 1.244° W

METAR

FOON 181800Z 20002KT 8000 SCT011 27/22 Q1010

Decode

TAF

Not found

Destination Runways

ID Width Length Bearing (true) Bearing (mag) Surface Threshold Offset Overrun Length
15 148 ft / 45 m 10,130 ft / 3,088 m 143.83° 145.07° Asphalt 0 ft / 0 m 197 ft / 60 m
33 148 ft / 45 m 10,130 ft / 3,088 m 323.83° 325.07° Asphalt 0 ft / 0 m 197 ft / 60 m

Approach Navaids

Runway Type Ident Frequency Range Bearing (true) Bearing (mag) Slope Elevation
15 Localiser FRA 110.10 MHz 18 nm / 33 km 143.91° 145.15° - 1,424 ft / 434 m (AMSL)
15 Glidescope FRA 110.10 MHz 10 nm / 19 km 143.83° 145.07° 3.00° 1,506 ft / 459 m (AMSL)